createdAt,value
2023-05-15T00:01:41.456Z,99270.00
2023-05-15T00:04:08.421Z,99278.03
2023-05-15T00:06:35.574Z,99282.78
2023-05-15T00:09:02.733Z,99297.47
2023-05-15T00:11:29.801Z,99294.56
2023-05-15T00:13:57.047Z,99290.03
2023-05-15T00:16:24.472Z,99290.72
2023-05-15T00:18:51.504Z,99287.72
2023-05-15T00:21:18.379Z,99280.06
2023-05-15T00:23:47.498Z,99286.38
2023-05-15T00:26:15.885Z,99287.28
2023-05-15T00:28:42.863Z,99276.41
2023-05-15T00:31:09.854Z,99268.81
2023-05-15T00:33:36.877Z,99271.88
2023-05-15T00:36:03.772Z,99264.28
2023-05-15T00:38:33.887Z,99247.53
2023-05-15T00:41:01.832Z,99244.72
2023-05-15T00:43:29.558Z,99254.09
2023-05-15T00:45:58.051Z,99256.25
2023-05-15T00:48:27.803Z,99258.97
2023-05-15T00:50:55.803Z,99251.69
2023-05-15T00:53:24.308Z,99231.13
2023-05-15T00:55:52.066Z,99232.81
2023-05-15T00:58:21.464Z,99233.84
2023-05-15T01:00:53.884Z,99227.06
2023-05-15T01:03:21.538Z,99222.19
2023-05-15T01:05:48.568Z,99216.81
2023-05-15T01:08:33.064Z,99206.34
2023-05-15T01:11:00.746Z,99202.94
2023-05-15T01:13:29.311Z,99203.16
2023-05-15T01:15:59.517Z,99202.16
2023-05-15T01:18:32.506Z,99210.59
2023-05-15T01:21:10.963Z,99214.16
2023-05-15T01:24:03.425Z,99213.59
2023-05-15T01:27:21.207Z,99216.19
2023-05-15T01:30:18.683Z,99222.53
2023-05-15T01:33:17.717Z,99222.03
2023-05-15T01:35:52.996Z,99222.13
2023-05-15T01:38:33.725Z,99221.59
2023-05-15T01:41:25.354Z,99225.66
2023-05-15T01:44:25.592Z,99219.81
2023-05-15T01:46:58.767Z,99211.63
2023-05-15T01:49:28.706Z,99209.13
2023-05-15T01:52:20.770Z,99211.31
2023-05-15T01:54:49.631Z,99221.91
2023-05-15T01:57:17.897Z,99210.94
2023-05-15T01:59:45.799Z,99207.06
2023-05-15T02:02:14.137Z,99199.03
2023-05-15T02:04:46.172Z,99197.69
2023-05-15T02:07:14.306Z,99212.84
2023-05-15T02:09:44.292Z,99208.44
2023-05-15T02:12:12.573Z,99202.97
2023-05-15T02:14:43.124Z,99210.56
2023-05-15T02:17:10.907Z,99199.94
2023-05-15T02:19:38.201Z,99202.53
2023-05-15T02:22:07.603Z,99200.94
2023-05-15T02:24:35.241Z,99195.75
2023-05-15T02:27:18.989Z,99196.09
2023-05-15T02:30:03.687Z,99196.00
2023-05-15T02:32:53.090Z,99198.16
2023-05-15T02:35:36.096Z,99208.16
2023-05-15T02:38:10.929Z,99198.53
2023-05-15T02:40:40.954Z,99203.75
2023-05-15T02:43:10.110Z,99195.28
2023-05-15T02:45:41.182Z,99202.03
2023-05-15T02:48:11.551Z,99207.25
2023-05-15T02:50:40.274Z,99204.13
2023-05-15T02:53:10.203Z,99212.59
2023-05-15T02:55:41.152Z,99206.63
2023-05-15T02:58:11.481Z,99199.03
2023-05-15T03:00:39.929Z,99202.09
2023-05-15T03:03:06.922Z,99196.66
2023-05-15T03:05:33.923Z,99197.47
2023-05-15T03:08:01.649Z,99198.72
2023-05-15T03:10:31.965Z,99196.09
2023-05-15T03:13:01.645Z,99185.94
2023-05-15T03:15:31.783Z,99191.47
2023-05-15T03:17:59.857Z,99186.25
2023-05-15T03:20:26.929Z,99187.84
2023-05-15T03:22:56.794Z,99187.28
2023-05-15T03:25:46.780Z,99185.59
2023-05-15T03:28:14.764Z,99187.84
2023-05-15T03:30:48.083Z,99177.66
2023-05-15T03:33:28.682Z,99185.78
2023-05-15T03:36:10.320Z,99183.66
2023-05-15T03:38:52.643Z,99181.84
2023-05-15T03:41:21.456Z,99182.63
2023-05-15T03:43:50.302Z,99169.84
2023-05-15T03:46:20.189Z,99170.16
2023-05-15T03:48:47.252Z,99166.50
2023-05-15T03:51:14.439Z,99163.72
2023-05-15T03:53:42.294Z,99168.69
2023-05-15T03:56:11.691Z,99171.72
2023-05-15T03:58:41.945Z,99188.13
2023-05-15T04:01:09.127Z,99183.28
2023-05-15T04:03:39.467Z,99174.75
2023-05-15T04:06:07.052Z,99169.88
2023-05-15T04:08:33.907Z,99175.63
2023-05-15T04:11:02.245Z,99179.81
2023-05-15T04:13:29.653Z,99179.81
2023-05-15T04:15:57.725Z,99179.25
2023-05-15T04:18:26.835Z,99183.44
2023-05-15T04:20:53.872Z,99181.41
2023-05-15T04:23:24.127Z,99178.00
2023-05-15T04:25:53.957Z,99171.78
2023-05-15T04:28:21.932Z,99176.06
2023-05-15T04:30:48.939Z,99170.84
2023-05-15T04:33:16.385Z,99170.13
2023-05-15T04:35:43.631Z,99172.00
2023-05-15T04:38:11.630Z,99170.69
2023-05-15T04:40:40.573Z,99167.06
2023-05-15T04:43:07.553Z,99170.03
2023-05-15T04:45:34.708Z,99167.28
2023-05-15T04:48:02.973Z,99167.22
2023-05-15T04:50:42.054Z,99175.50
2023-05-15T04:53:09.945Z,99176.97
2023-05-15T04:55:37.017Z,99174.72
2023-05-15T04:58:06.269Z,99175.38
2023-05-15T05:00:33.942Z,99182.78
2023-05-15T05:03:03.371Z,99185.94
2023-05-15T05:05:32.635Z,99182.16
2023-05-15T05:07:59.721Z,99189.91
2023-05-15T05:10:26.815Z,99190.38
2023-05-15T05:12:57.647Z,99182.03
2023-05-15T05:15:27.733Z,99185.66
2023-05-15T05:17:55.511Z,99179.94
2023-05-15T05:20:22.450Z,99183.13
2023-05-15T05:22:51.263Z,99177.50
2023-05-15T05:25:22.276Z,99186.59
2023-05-15T05:27:52.769Z,99188.47
2023-05-15T05:30:23.634Z,99186.72
2023-05-15T05:32:52.676Z,99190.16
2023-05-15T05:35:23.749Z,99192.38
2023-05-15T05:37:51.625Z,99199.28
2023-05-15T05:40:19.553Z,99190.53
2023-05-15T05:42:46.935Z,99193.47
2023-05-15T05:45:19.486Z,99198.75
2023-05-15T05:47:53.238Z,99200.16
2023-05-15T05:50:21.096Z,99197.63
2023-05-15T05:52:48.600Z,99209.34
2023-05-15T05:55:27.902Z,99207.38
2023-05-15T05:58:23.996Z,99214.19
2023-05-15T06:00:56.592Z,99204.47
2023-05-15T06:03:25.803Z,99208.41
2023-05-15T06:05:55.176Z,99212.41
2023-05-15T06:08:28.681Z,99213.38
2023-05-15T06:11:07.722Z,99222.22
2023-05-15T06:13:35.980Z,99217.00
2023-05-15T06:16:04.440Z,99216.72
2023-05-15T06:18:58.051Z,99218.84
2023-05-15T06:21:26.024Z,99220.41
2023-05-15T06:23:53.637Z,99222.38
2023-05-15T06:26:23.352Z,99227.44
2023-05-15T06:28:56.453Z,99230.22
2023-05-15T06:31:24.494Z,99226.69
2023-05-15T06:33:53.690Z,99229.41
2023-05-15T06:36:27.984Z,99226.66
2023-05-15T06:39:01.509Z,99225.56
2023-05-15T06:41:34.473Z,99236.63
2023-05-15T06:44:01.478Z,99230.22
2023-05-15T06:46:31.629Z,99232.13
2023-05-15T06:48:59.194Z,99234.00
2023-05-15T06:51:26.541Z,99232.69
2023-05-15T06:53:56.104Z,99233.09
2023-05-15T06:56:23.369Z,99227.34
2023-05-15T06:58:52.361Z,99227.00
2023-05-15T07:01:20.684Z,99237.94
2023-05-15T07:03:53.899Z,99237.28
2023-05-15T07:06:28.605Z,99242.88
2023-05-15T07:08:56.415Z,99236.13
2023-05-15T07:11:24.576Z,99245.44
2023-05-15T07:13:52.677Z,99241.22
2023-05-15T07:16:20.629Z,99241.03
2023-05-15T07:18:49.660Z,99244.16
2023-05-15T07:21:16.872Z,99252.59
2023-05-15T07:23:47.649Z,99250.41
2023-05-15T07:26:28.651Z,99248.25
2023-05-15T07:29:17.609Z,99248.34
2023-05-15T07:31:56.068Z,99256.56
2023-05-15T07:34:30.508Z,99256.00
2023-05-15T07:36:59.566Z,99260.16
2023-05-15T07:39:35.374Z,99257.53
2023-05-15T07:42:08.691Z,99265.44
2023-05-15T07:44:48.776Z,99253.38
2023-05-15T07:47:23.099Z,99263.34
2023-05-15T07:49:52.694Z,99268.84
2023-05-15T07:52:20.896Z,99268.06
2023-05-15T07:54:51.356Z,99256.03
2023-05-15T07:57:18.537Z,99265.94
2023-05-15T07:59:46.941Z,99275.22
2023-05-15T08:02:13.833Z,99281.19
2023-05-15T08:04:41.384Z,99298.06
2023-05-15T08:07:09.681Z,99295.28
2023-05-15T08:09:36.748Z,99291.84
2023-05-15T08:12:24.263Z,99306.09
2023-05-15T08:14:54.512Z,99297.72
2023-05-15T08:17:23.369Z,99288.34
2023-05-15T08:19:53.740Z,99283.16
2023-05-15T08:22:25.979Z,99282.38
2023-05-15T08:24:58.731Z,99283.31
2023-05-15T08:27:27.490Z,99297.19
2023-05-15T08:29:57.076Z,99295.63
2023-05-15T08:32:26.692Z,99298.22
2023-05-15T08:35:00.844Z,99295.66
2023-05-15T08:37:28.236Z,99302.97
2023-05-15T08:39:55.236Z,99303.03
2023-05-15T08:42:28.342Z,99308.59
2023-05-15T08:45:02.172Z,99300.75
2023-05-15T08:47:35.597Z,99312.13
2023-05-15T08:50:14.486Z,99314.22
2023-05-15T08:52:47.485Z,99328.09
2023-05-15T08:55:17.947Z,99325.22
2023-05-15T08:57:49.354Z,99325.72
2023-05-15T09:00:30.422Z,99328.31
2023-05-15T09:03:04.162Z,99323.06
2023-05-15T09:05:32.107Z,99314.69
2023-05-15T09:08:04.282Z,99314.69
2023-05-15T09:10:32.752Z,99313.41
2023-05-15T09:13:14.501Z,99323.97
2023-05-15T09:15:46.578Z,99318.16
2023-05-15T09:18:18.500Z,99322.09
2023-05-15T09:20:45.619Z,99337.59
2023-05-15T09:23:48.654Z,99336.50
2023-05-15T09:26:17.084Z,99333.13
2023-05-15T09:28:46.408Z,99334.03
2023-05-15T09:31:19.836Z,99341.53
2023-05-15T09:33:47.831Z,99342.31
2023-05-15T09:36:22.916Z,99339.53
2023-05-15T09:38:52.828Z,99339.28
2023-05-15T09:41:26.118Z,99340.88
2023-05-15T09:43:58.570Z,99336.78
2023-05-15T09:46:45.448Z,99326.28
2023-05-15T09:49:22.179Z,99327.28
2023-05-15T09:52:01.291Z,99328.34
2023-05-15T09:54:50.506Z,99338.88
2023-05-15T09:57:34.932Z,99342.78
2023-05-15T10:00:13.839Z,99342.50
2023-05-15T10:02:43.078Z,99334.63
2023-05-15T10:05:14.547Z,99338.94
2023-05-15T10:07:41.867Z,99340.03
2023-05-15T10:10:17.783Z,99347.53
2023-05-15T10:12:47.232Z,99350.31
2023-05-15T10:15:17.286Z,99352.75
2023-05-15T10:17:49.733Z,99352.25
2023-05-15T10:20:23.950Z,99347.03
2023-05-15T10:22:54.344Z,99338.16
2023-05-15T10:25:59.073Z,99329.75
2023-05-15T10:28:27.954Z,99344.34
2023-05-15T10:30:57.879Z,99338.03
2023-05-15T10:33:25.527Z,99338.22
2023-05-15T10:35:53.356Z,99333.63
2023-05-15T10:38:21.594Z,99338.69
2023-05-15T10:40:49.171Z,99330.72
2023-05-15T10:43:16.302Z,99322.94
2023-05-15T10:45:43.730Z,99320.66
2023-05-15T10:48:12.603Z,99314.63
2023-05-15T10:50:39.668Z,99319.56
2023-05-15T10:53:07.060Z,99326.22
2023-05-15T10:55:33.972Z,99321.81
2023-05-15T10:58:00.932Z,99314.81
2023-05-15T11:00:32.706Z,99312.78
2023-05-15T11:03:01.118Z,99308.72
2023-05-15T11:05:31.206Z,99301.13
2023-05-15T11:08:21.601Z,99300.25
2023-05-15T11:10:48.553Z,99290.09
2023-05-15T11:13:18.517Z,99288.75
2023-05-15T11:15:47.920Z,99300.25
2023-05-15T11:18:15.778Z,99298.06
2023-05-15T11:20:54.681Z,99290.00
2023-05-15T11:23:27.014Z,99302.47
2023-05-15T11:25:57.010Z,99311.88
2023-05-15T11:28:25.952Z,99300.91
2023-05-15T11:30:59.358Z,99298.38
2023-05-15T11:33:33.628Z,99289.75
2023-05-15T11:36:04.949Z,99292.66
2023-05-15T11:38:39.779Z,99289.72
2023-05-15T11:41:19.494Z,99293.03
2023-05-15T11:43:47.965Z,99302.84
2023-05-15T11:46:15.590Z,99306.69
2023-05-15T11:48:44.479Z,99298.16
2023-05-15T11:51:22.196Z,99317.22
2023-05-15T11:53:57.810Z,99303.84
2023-05-15T11:56:29.107Z,99322.00
2023-05-15T11:58:58.676Z,99326.25
2023-05-15T12:01:28.414Z,99328.78
2023-05-15T12:03:58.346Z,99330.09
2023-05-15T12:06:36.350Z,99326.31
2023-05-15T12:09:19.252Z,99313.84
2023-05-15T12:11:54.354Z,99308.00
2023-05-15T12:14:31.976Z,99305.44
2023-05-15T12:17:04.457Z,99312.03
2023-05-15T12:19:36.699Z,99318.06
2023-05-15T12:22:06.730Z,99320.66
2023-05-15T12:25:00.883Z,99326.69
2023-05-15T12:27:32.541Z,99323.88
2023-05-15T12:30:02.853Z,99320.00
2023-05-15T12:32:36.854Z,99314.41
2023-05-15T12:35:05.131Z,99305.13
2023-05-15T12:37:43.084Z,99299.19
2023-05-15T12:40:16.796Z,99299.44
2023-05-15T12:42:46.677Z,99303.28
2023-05-15T12:45:17.343Z,99301.66
2023-05-15T12:47:50.354Z,99314.00
2023-05-15T12:50:25.613Z,99313.22
2023-05-15T12:52:59.753Z,99315.22
2023-05-15T12:55:39.778Z,99322.69
2023-05-15T12:58:08.775Z,99319.53
2023-05-15T13:00:44.418Z,99327.94
2023-05-15T13:03:13.263Z,99317.84
2023-05-15T13:05:43.444Z,99317.00
2023-05-15T13:08:21.828Z,99323.56
2023-05-15T13:11:00.611Z,99325.16
2023-05-15T13:14:08.864Z,99331.28
2023-05-15T13:16:40.102Z,99324.94
2023-05-15T13:19:07.802Z,99323.13
2023-05-15T13:21:37.433Z,99324.66
2023-05-15T13:24:10.078Z,99317.53
2023-05-15T13:26:39.330Z,99329.34
2023-05-15T13:29:08.331Z,99330.00
2023-05-15T13:31:39.373Z,99326.94
2023-05-15T13:34:13.548Z,99321.50
2023-05-15T13:37:03.828Z,99329.50
2023-05-15T13:39:42.276Z,99329.28
2023-05-15T13:42:18.103Z,99327.56
2023-05-15T13:44:48.213Z,99317.78
2023-05-15T13:47:24.232Z,99329.72
2023-05-15T13:50:10.736Z,99332.41
2023-05-15T13:52:38.170Z,99328.00
2023-05-15T13:55:07.500Z,99325.31
2023-05-15T13:57:37.093Z,99321.75
2023-05-15T14:00:13.743Z,99326.38
2023-05-15T14:02:44.306Z,99329.78
2023-05-15T14:05:13.453Z,99321.84
2023-05-15T14:07:41.497Z,99325.75
2023-05-15T14:10:10.342Z,99320.16
2023-05-15T14:12:38.269Z,99326.63
2023-05-15T14:15:07.109Z,99328.84
2023-05-15T14:17:35.333Z,99325.25
2023-05-15T14:20:07.392Z,99330.97
2023-05-15T14:22:36.339Z,99322.63
2023-05-15T14:25:05.634Z,99328.47
2023-05-15T14:27:34.087Z,99326.72
2023-05-15T14:30:02.062Z,99334.56
2023-05-15T14:32:34.853Z,99327.41
2023-05-15T14:35:05.147Z,99332.44
2023-05-15T14:37:32.815Z,99337.06
2023-05-15T14:40:00.111Z,99339.19
2023-05-15T14:42:27.793Z,99332.13
2023-05-15T14:44:58.123Z,99330.63
2023-05-15T14:47:41.028Z,99333.63
2023-05-15T14:50:11.906Z,99325.16
2023-05-15T14:52:40.363Z,99332.00
2023-05-15T14:55:09.670Z,99328.53
2023-05-15T14:57:38.530Z,99332.19
2023-05-15T15:00:08.332Z,99328.84
2023-05-15T15:02:35.552Z,99333.56
2023-05-15T15:05:04.920Z,99328.88
2023-05-15T15:07:59.840Z,99331.13
2023-05-15T15:10:32.278Z,99343.50
2023-05-15T15:13:02.074Z,99341.88
2023-05-15T15:15:30.355Z,99347.41
2023-05-15T15:18:00.172Z,99342.50
2023-05-15T15:20:29.345Z,99345.41
2023-05-15T15:22:57.751Z,99337.41
2023-05-15T15:25:26.432Z,99348.00
2023-05-15T15:27:53.468Z,99345.16
2023-05-15T15:30:25.693Z,99346.81
2023-05-15T15:32:56.178Z,99340.03
2023-05-15T15:35:25.522Z,99347.69
2023-05-15T15:37:54.412Z,99349.78
2023-05-15T15:40:24.187Z,99352.41
2023-05-15T15:42:51.457Z,99353.97
2023-05-15T15:45:21.968Z,99348.66
2023-05-15T15:47:48.998Z,99350.94
2023-05-15T15:50:15.966Z,99346.38
2023-05-15T15:52:45.793Z,99350.03
2023-05-15T15:55:14.941Z,99356.56
2023-05-15T15:57:41.779Z,99355.03
2023-05-15T16:00:09.878Z,99360.56
2023-05-15T16:02:41.844Z,99358.00
2023-05-15T16:05:10.873Z,99349.63
2023-05-15T16:07:37.945Z,99353.59
2023-05-15T16:10:12.253Z,99351.53
2023-05-15T16:12:44.564Z,99346.34
2023-05-15T16:15:22.590Z,99353.97
2023-05-15T16:18:03.192Z,99343.72
2023-05-15T16:20:35.276Z,99343.16
2023-05-15T16:23:06.805Z,99353.44
2023-05-15T16:25:36.701Z,99359.50
2023-05-15T16:28:04.801Z,99355.06
2023-05-15T16:30:48.128Z,99354.56
2023-05-15T16:33:18.594Z,99357.19
2023-05-15T16:35:48.952Z,99361.44
2023-05-15T16:38:16.708Z,99365.63
2023-05-15T16:40:45.514Z,99360.66
2023-05-15T16:43:13.512Z,99361.19
2023-05-15T16:45:52.689Z,99358.06
2023-05-15T16:48:26.438Z,99374.06
2023-05-15T16:50:53.959Z,99371.19
2023-05-15T16:53:24.787Z,99376.44
2023-05-15T16:55:52.402Z,99378.25
2023-05-15T16:58:23.477Z,99376.69
2023-05-15T17:00:50.977Z,99372.50
2023-05-15T17:03:19.070Z,99368.25
2023-05-15T17:05:48.618Z,99374.31
2023-05-15T17:08:18.154Z,99380.91
2023-05-15T17:10:48.965Z,99385.09
2023-05-15T17:13:16.450Z,99380.63
2023-05-15T17:15:43.555Z,99376.97
2023-05-15T17:18:10.463Z,99385.31
2023-05-15T17:20:38.146Z,99389.78
2023-05-15T17:23:23.038Z,99392.88
2023-05-15T17:25:58.802Z,99398.38
2023-05-15T17:28:26.368Z,99405.22
2023-05-15T17:30:53.264Z,99408.63
2023-05-15T17:33:20.584Z,99410.66
2023-05-15T17:35:47.518Z,99417.72
2023-05-15T17:38:16.929Z,99413.78
2023-05-15T17:40:43.755Z,99420.56
2023-05-15T17:43:10.696Z,99419.75
2023-05-15T17:45:37.662Z,99423.69
2023-05-15T17:48:05.169Z,99432.28
2023-05-15T17:50:32.106Z,99431.19
2023-05-15T17:52:58.992Z,99430.63
2023-05-15T17:55:26.173Z,99436.63
2023-05-15T17:57:53.231Z,99437.63
2023-05-15T18:00:20.492Z,99435.50
2023-05-15T18:02:47.339Z,99435.44
2023-05-15T18:05:14.847Z,99435.66
2023-05-15T18:07:43.049Z,99438.50
2023-05-15T18:10:10.955Z,99441.09
2023-05-15T18:12:38.037Z,99442.06
2023-05-15T18:15:05.302Z,99444.09
2023-05-15T18:17:33.133Z,99453.75
2023-05-15T18:20:00.242Z,99452.88
2023-05-15T18:22:27.664Z,99457.84
2023-05-15T18:24:54.685Z,99450.19
2023-05-15T18:27:21.680Z,99448.84
2023-05-15T18:29:49.593Z,99445.63
2023-05-15T18:32:17.037Z,99444.81
2023-05-15T18:34:43.943Z,99455.78
2023-05-15T18:37:10.907Z,99457.53
2023-05-15T18:39:39.111Z,99462.50
2023-05-15T18:42:09.468Z,99467.56
2023-05-15T18:44:36.820Z,99467.06
2023-05-15T18:47:04.218Z,99470.63
2023-05-15T18:49:32.410Z,99473.75
2023-05-15T18:52:03.805Z,99470.28
2023-05-15T18:54:30.852Z,99472.56
2023-05-15T18:56:58.056Z,99474.09
2023-05-15T18:59:28.582Z,99476.09
2023-05-15T19:01:55.699Z,99476.00
2023-05-15T19:04:24.375Z,99477.31
2023-05-15T19:06:51.540Z,99482.22
2023-05-15T19:09:18.566Z,99475.66
2023-05-15T19:11:49.352Z,99475.09
2023-05-15T19:14:18.065Z,99477.16
2023-05-15T19:16:50.918Z,99487.81
2023-05-15T19:19:24.164Z,99494.84
2023-05-15T19:21:53.664Z,99483.03
2023-05-15T19:24:22.046Z,99493.97
2023-05-15T19:26:49.153Z,99492.94
2023-05-15T19:29:18.851Z,99493.97
2023-05-15T19:31:46.193Z,99498.88
2023-05-15T19:34:13.753Z,99503.31
2023-05-15T19:36:40.748Z,99495.38
2023-05-15T19:39:07.583Z,99502.19
2023-05-15T19:41:34.478Z,99504.78
2023-05-15T19:44:01.843Z,99501.66
2023-05-15T19:46:28.813Z,99506.88
2023-05-15T19:48:55.753Z,99507.91
2023-05-15T19:51:22.618Z,99513.13
2023-05-15T19:53:49.474Z,99512.34
2023-05-15T19:56:16.435Z,99514.72
2023-05-15T19:58:43.285Z,99508.38
2023-05-15T20:01:10.136Z,99508.63
2023-05-15T20:03:37.049Z,99509.88
2023-05-15T20:06:04.066Z,99515.59
2023-05-15T20:08:31.266Z,99511.38
2023-05-15T20:10:58.600Z,99505.13
2023-05-15T20:13:25.696Z,99510.03
2023-05-15T20:16:00.063Z,99511.84
2023-05-15T20:18:32.166Z,99514.47
2023-05-15T20:21:00.949Z,99511.84
2023-05-15T20:23:27.829Z,99515.16
2023-05-15T20:25:55.085Z,99513.28
2023-05-15T20:28:25.073Z,99514.53
2023-05-15T20:30:52.593Z,99498.53
2023-05-15T20:33:19.673Z,99507.41
2023-05-15T20:35:47.128Z,99510.25
2023-05-15T20:38:14.597Z,99507.91
2023-05-15T20:40:41.736Z,99523.56
2023-05-15T20:43:10.129Z,99515.97
2023-05-15T20:45:37.212Z,99515.16
2023-05-15T20:48:06.917Z,99509.84
2023-05-15T20:50:33.844Z,99516.03
2023-05-15T20:53:01.154Z,99512.28
2023-05-15T20:55:30.937Z,99509.59
2023-05-15T20:57:59.393Z,99512.66
2023-05-15T21:00:26.397Z,99520.97
2023-05-15T21:02:53.408Z,99518.09
2023-05-15T21:05:22.205Z,99521.41
2023-05-15T21:07:50.847Z,99513.06
2023-05-15T21:10:21.616Z,99518.72
2023-05-15T21:12:50.827Z,99516.31
2023-05-15T21:15:32.002Z,99512.41
2023-05-15T21:17:59.079Z,99504.81
2023-05-15T21:20:27.421Z,99509.56
2023-05-15T21:22:54.513Z,99504.63
2023-05-15T21:25:21.691Z,99503.72
2023-05-15T21:27:49.185Z,99499.59
2023-05-15T21:30:20.782Z,99507.00
2023-05-15T21:32:47.721Z,99507.06
2023-05-15T21:35:14.614Z,99511.78
2023-05-15T21:37:41.511Z,99515.00
2023-05-15T21:40:08.946Z,99499.34
2023-05-15T21:42:35.966Z,99498.38
2023-05-15T21:45:05.426Z,99502.59
2023-05-15T21:47:33.879Z,99511.44
2023-05-15T21:50:01.210Z,99518.69
2023-05-15T21:52:29.165Z,99509.28
2023-05-15T21:54:56.302Z,99522.59
2023-05-15T21:57:23.208Z,99517.84
2023-05-15T21:59:50.160Z,99521.00
2023-05-15T22:02:17.076Z,99537.09
2023-05-15T22:04:44.338Z,99542.31
2023-05-15T22:07:11.499Z,99544.13
2023-05-15T22:09:38.315Z,99549.34
2023-05-15T22:12:05.368Z,99548.81
2023-05-15T22:14:32.313Z,99548.97
2023-05-15T22:16:59.986Z,99546.72
2023-05-15T22:19:33.080Z,99554.22
2023-05-15T22:22:04.608Z,99552.19
2023-05-15T22:24:31.521Z,99559.00
2023-05-15T22:26:58.607Z,99563.44
2023-05-15T22:29:26.648Z,99570.13
2023-05-15T22:31:53.655Z,99576.84
2023-05-15T22:34:20.657Z,99580.91
2023-05-15T22:36:47.969Z,99570.16
2023-05-15T22:39:14.788Z,99572.19
2023-05-15T22:41:42.102Z,99577.66
2023-05-15T22:44:08.996Z,99583.41
2023-05-15T22:46:35.998Z,99577.19
2023-05-15T22:49:04.559Z,99586.59
2023-05-15T22:51:31.490Z,99579.09
2023-05-15T22:53:58.264Z,99577.63
2023-05-15T22:56:25.131Z,99567.50
2023-05-15T22:58:53.305Z,99560.72
2023-05-15T23:01:20.968Z,99556.44
2023-05-15T23:03:47.866Z,99553.81
2023-05-15T23:06:18.490Z,99560.50
2023-05-15T23:08:45.897Z,99554.28
2023-05-15T23:11:12.876Z,99546.78
2023-05-15T23:13:39.754Z,99548.38
2023-05-15T23:16:06.856Z,99546.34
2023-05-15T23:18:33.665Z,99548.47
2023-05-15T23:21:02.662Z,99555.03
2023-05-15T23:23:29.592Z,99558.22
2023-05-15T23:25:56.689Z,99545.41
2023-05-15T23:28:24.913Z,99543.63
2023-05-15T23:30:56.878Z,99544.28
2023-05-15T23:33:23.825Z,99551.06
2023-05-15T23:35:50.713Z,99553.91
2023-05-15T23:38:18.086Z,99555.50
2023-05-15T23:40:45.088Z,99559.47
2023-05-15T23:43:12.444Z,99560.03
2023-05-15T23:45:39.274Z,99560.38
2023-05-15T23:48:06.343Z,99556.97
2023-05-15T23:50:33.223Z,99554.13
2023-05-15T23:53:00.039Z,99555.72
2023-05-15T23:55:29.130Z,99549.22
2023-05-15T23:57:56.983Z,99544.78
